Coral Sapphire — 3EFA5 — position and weather

sailwx.info

Track history (hours):
 
Tides and Currents Weather Stations Pressure Air Temp Water Temp Dewpoint Dewpoint Depression Visibility Wind Speed Wind Dir Waves Ship Positions

Coral Sapphire

Last reported at 2018-Feb-04 10:00 UTC. Time now 2018-Feb-19 06:05 UTC.
Position N 33°47' E 134°57'.
Warning: this ship's position is 14 days out of date.

Length 225 m; draft 8.3 m.

Type: Cargo ship. MMSI: 371979000.

Date/timePositionNaut miles runAvg speedWind from/ knotsBaromVisibWave heightAir tempDewpointWater temp
2018-Feb-04 10:00N 33°47' E 134°57'1212.2
2018-Feb-04 09:00N 33°60' E 134°58'612.5
2018-Feb-04 08:30N 34°06' E 134°58'612.4
2018-Feb-04 08:00N 34°12' E 134°57'510.8
2018-Feb-04 07:31N 34°17' E 134°58'612.7
2018-Feb-04 07:00N 34°23' E 135°00'613.0
2018-Feb-04 06:31N 34°29' E 135°04'5 9.4
2018-Feb-04 06:01N 34°33' E 135°06'611.1
2018-Feb-04 05:30N 34°37' E 135°01'713.9
2018-Feb-04 05:00N 34°34' E 134°53'612.6
2018-Feb-04 04:30N 34°32' E 134°46'713.2
2018-Feb-04 04:00N 34°30' E 134°38'713.7
2018-Feb-04 03:31N 34°27' E 134°31'713.5
2018-Feb-04 03:00N 34°24' E 134°23'713.1
2018-Feb-04 02:30N 34°24' E 134°15'612.3
2018-Feb-04 02:00N 34°26' E 134°08'  
2018-Feb-01 00:33N 34°26' E 134°08'111.3
2018-Feb-01 00:30N 34°26' E 134°09'611.2
2018-Jan-31 23:58N 34°24' E 134°16'1010.5
2018-Jan-31 23:00N 34°27' E 134°28'611.0
2018-Jan-31 22:29N 34°29' E 134°34'1711.6
2018-Jan-31 21:00N 34°36' E 134°54'511.0
2018-Jan-31 20:31N 34°38' E 134°60'5 9.0
2018-Jan-31 20:00N 34°36' E 135°05'3 5.0
2018-Jan-31 19:30N 34°34' E 135°07'3 5.4
2018-Jan-31 19:01N 34°32' E 135°07'611.1
2018-Jan-31 18:30N 34°27' E 135°04'611.2
2018-Jan-31 18:00N 34°22' E 135°01'510.3
2018-Jan-31 17:30N 34°17' E 134°59'4 8.5
2018-Jan-31 17:01N 34°13' E 134°59'4 8.0
2018-Jan-31 16:30N 34°09' E 134°59'3 5.5
2018-Jan-31 16:00N 34°06' E 134°58'3 5.6
2018-Jan-31 15:30N 34°04' E 134°56'3 5.9
2018-Jan-31 15:00N 34°01' E 134°54'3 5.6
2018-Jan-31 14:30N 33°59' E 134°53'9 5.9
2018-Jan-31 13:00N 33°50' E 134°57'4 9.0
2018-Jan-31 12:30N 33°46' E 134°57'5 9.3
2018-Jan-31 11:57N 33°41' E 134°58'  
Track history (hours):
 
Tides and Currents Weather Stations Pressure Air Temp Water Temp Dewpoint Dewpoint Depression Visibility Wind Speed Wind Dir Waves Ship Positions

Coral Sapphire

Last reported at 2018-Feb-04 10:00 UTC. Time now 2018-Feb-19 06:05 UTC.
Position N 33°47' E 134°57'.
Warning: this ship's position is 14 days out of date.

Length 225 m; draft 8.3 m.

Type: Cargo ship. MMSI: 371979000.

Date/timePositionNaut miles runAvg speedWind from/ knotsBaromVisibWave heightAir tempDewpointWater temp
2018-Feb-04 10:00N 33°47' E 134°57'1212.2
2018-Feb-04 09:00N 33°60' E 134°58'612.5
2018-Feb-04 08:30N 34°06' E 134°58'612.4
2018-Feb-04 08:00N 34°12' E 134°57'510.8
2018-Feb-04 07:31N 34°17' E 134°58'612.7
2018-Feb-04 07:00N 34°23' E 135°00'613.0
2018-Feb-04 06:31N 34°29' E 135°04'5 9.4
2018-Feb-04 06:01N 34°33' E 135°06'611.1
2018-Feb-04 05:30N 34°37' E 135°01'713.9
2018-Feb-04 05:00N 34°34' E 134°53'612.6
2018-Feb-04 04:30N 34°32' E 134°46'713.2
2018-Feb-04 04:00N 34°30' E 134°38'713.7
2018-Feb-04 03:31N 34°27' E 134°31'713.5
2018-Feb-04 03:00N 34°24' E 134°23'713.1
2018-Feb-04 02:30N 34°24' E 134°15'612.3
2018-Feb-04 02:00N 34°26' E 134°08'  
2018-Feb-01 00:33N 34°26' E 134°08'111.3
2018-Feb-01 00:30N 34°26' E 134°09'611.2
2018-Jan-31 23:58N 34°24' E 134°16'1010.5
2018-Jan-31 23:00N 34°27' E 134°28'611.0
2018-Jan-31 22:29N 34°29' E 134°34'1711.6
2018-Jan-31 21:00N 34°36' E 134°54'511.0
2018-Jan-31 20:31N 34°38' E 134°60'5 9.0
2018-Jan-31 20:00N 34°36' E 135°05'3 5.0
2018-Jan-31 19:30N 34°34' E 135°07'3 5.4
2018-Jan-31 19:01N 34°32' E 135°07'611.1
2018-Jan-31 18:30N 34°27' E 135°04'611.2
2018-Jan-31 18:00N 34°22' E 135°01'510.3
2018-Jan-31 17:30N 34°17' E 134°59'4 8.5
2018-Jan-31 17:01N 34°13' E 134°59'4 8.0
2018-Jan-31 16:30N 34°09' E 134°59'3 5.5
2018-Jan-31 16:00N 34°06' E 134°58'3 5.6
2018-Jan-31 15:30N 34°04' E 134°56'3 5.9
2018-Jan-31 15:00N 34°01' E 134°54'3 5.6
2018-Jan-31 14:30N 33°59' E 134°53'9 5.9
2018-Jan-31 13:00N 33°50' E 134°57'4 9.0
2018-Jan-31 12:30N 33°46' E 134°57'5 9.3
2018-Jan-31 11:57N 33°41' E 134°58'  

Dump ship's entire track history